Time;durP1;ratioP1;P1;durP2;ratioP2;P2;SDS_P1;SDS_P2;PMS_P1;PMS_P2;Temp;Humidity;BMP_temperature;BMP_pressure;BME280_temperature;BME280_humidity;BME280_pressure;Samples;Min_cycle;Max_cycle;Signal;HPM_P1;HPM_P2
2022/03/04 00:02:01;;;;;;;;;;;-0.10;99.90;;;-1.97;86.45;101558.13;2569411;30;137053;-41
2022/03/04 00:04:28;;;;;;;;;;;-0.10;99.90;;;-2.02;86.71;101569.16;2571296;30;136947;-41
2022/03/04 00:06:56;;;;;;;;;;;-0.20;99.90;;;-2.09;87.34;101569.72;2567899;30;138203;-41
2022/03/04 00:09:23;;;;;;;;;;;-0.30;99.90;;;-2.13;87.65;101574.44;2570266;30;137053;-42
2022/03/04 00:11:51;;;;;;;;;;;-0.30;99.90;;;-2.22;88.05;101567.94;2568094;30;138293;-41
2022/03/04 00:14:19;;;;;;;;;;;-0.30;99.90;;;-2.23;88.18;101579.59;2571889;30;136721;-41
2022/03/04 00:16:47;;;;;;;;;;;-0.40;99.90;;;-2.29;88.02;101576.50;2570471;30;138279;-41
2022/03/04 00:19:14;;;;;;;;;;;-0.40;99.90;;;-2.35;88.44;101577.81;2569028;30;137107;-41
2022/03/04 00:21:53;;;;;;;;;;;-0.50;99.90;;;-2.38;88.61;101578.88;2570377;30;138499;-43
2022/03/04 00:24:22;;;;;;;;;;;-0.50;99.90;;;-2.43;88.41;101585.50;2571181;30;136748;-41
2022/03/04 00:26:50;;;;;;;;;;;-0.60;99.90;;;-2.50;88.27;101580.59;2567987;30;138233;-42
2022/03/04 00:29:18;;;;;;;;;;;-0.60;99.90;;;-2.53;88.51;101586.16;2573603;30;137447;-41
2022/03/04 00:31:45;;;;;;;;;;;-0.60;99.90;;;-2.59;88.50;101586.59;2569399;30;139412;-41
2022/03/04 00:34:13;;;;;;;;;;;-0.70;99.90;;;-2.64;87.96;101594.09;2568876;30;137078;-42
2022/03/04 00:36:41;;;;;;;;;;;-0.70;99.90;;;-2.73;88.29;101579.53;2569621;30;139209;-42
2022/03/04 00:39:11;;;;;;;;;;;-0.80;99.90;;;-2.74;88.79;101593.88;2570793;30;136778;-41
2022/03/04 00:41:39;;;;;;;;;;;-0.80;99.90;;;-2.81;89.47;101592.56;2570049;30;137896;-41
2022/03/04 00:44:07;;;;;;;;;;;-0.90;99.90;;;-2.81;89.97;101597.91;2569884;30;136747;-44
2022/03/04 00:46:35;;;;;;;;;;;-0.90;99.90;;;-2.85;90.37;101602.63;2569406;30;139176;-41
2022/03/04 00:49:04;;;;;;;;;;;-0.90;99.90;;;-2.88;90.49;101610.84;2569042;30;137240;-45
2022/03/04 00:51:32;;;;;;;;;;;-1.00;99.90;;;-2.89;90.96;101614.47;2569717;30;138982;-43
2022/03/04 00:53:59;;;;;;;;;;;-1.00;99.90;;;-2.93;90.84;101604.94;2567692;30;137366;-41
2022/03/04 00:56:27;;;;;;;;;;;-1.00;99.90;;;-2.96;90.60;101610.50;2570680;30;138525;-41
2022/03/04 00:58:54;;;;;;;;;;;-1.10;99.90;;;-2.95;90.71;101609.53;2568174;30;136680;-41
2022/03/04 01:01:21;;;;;;;;;;;-1.10;99.90;;;-3.01;90.75;101612.63;2571653;30;138147;-45
2022/03/04 01:03:49;;;;;;;;;;;-1.10;99.90;;;-3.14;91.45;101597.44;2581489;30;138008;-39
2022/03/04 01:06:18;;;;;;;;;;;-1.20;99.90;;;-3.07;92.02;101614.75;2566128;30;138398;-40
2022/03/04 01:08:46;;;;;;;;;;;-1.20;99.90;;;-3.07;91.99;101616.56;2569097;30;137053;-40
2022/03/04 01:11:13;;;;;;;;;;;-1.20;99.90;;;-3.10;91.75;101617.63;2567337;30;139115;-40
2022/03/04 01:13:45;;;;;;;;;;;-1.20;99.90;;;-3.19;91.30;101612.91;2566419;30;137006;-40
2022/03/04 01:16:12;;;;;;;;;;;-1.30;99.90;;;-3.25;91.69;101616.84;2567128;30;138167;-41
2022/03/04 01:18:40;;;;;;;;;;;-1.40;99.90;;;-3.28;91.95;101618.88;2569777;30;136908;-40
2022/03/04 01:21:07;;;;;;;;;;;-1.40;99.90;;;-3.39;92.08;101612.44;2566056;30;138429;-40
2022/03/04 01:23:35;;;;;;;;;;;-1.50;99.90;;;-3.43;92.61;101613.59;2568473;30;137246;-40
2022/03/04 01:26:02;;;;;;;;;;;-1.50;99.90;;;-3.46;92.92;101619.13;2568826;30;137296;-40
2022/03/04 01:28:30;;;;;;;;;;;-1.60;99.90;;;-3.48;93.43;101610.34;2568137;30;137051;-40
2022/03/04 01:30:58;;;;;;;;;;;-1.60;99.90;;;-3.50;93.70;101606.94;2567765;30;137907;-40
2022/03/04 01:33:25;;;;;;;;;;;-1.60;99.90;;;-3.51;93.83;101610.56;2569326;30;137177;-40
2022/03/04 01:35:53;;;;;;;;;;;-1.60;99.90;;;-3.53;93.77;101599.13;2567727;30;138403;-40
2022/03/04 01:38:20;;;;;;;;;;;-1.70;99.90;;;-3.57;93.53;101598.50;2566927;30;136973;-40
2022/03/04 01:40:48;;;;;;;;;;;-1.70;99.90;;;-3.61;93.66;101594.31;2568600;30;139067;-40
2022/03/04 01:43:15;;;;;;;;;;;-1.70;99.90;;;-3.66;93.48;101589.28;2568526;30;137880;-40
2022/03/04 01:45:44;;;;;;;;;;;-1.70;99.90;;;-3.66;93.46;101597.28;2566883;30;137820;-40
2022/03/04 01:48:13;;;;;;;;;;;-1.80;99.90;;;-3.65;93.66;101595.47;2569214;30;137031;-40
2022/03/04 01:50:42;;;;;;;;;;;-1.80;99.90;;;-3.66;93.38;101601.75;2566728;30;139401;-40
2022/03/04 01:53:10;;;;;;;;;;;-1.80;99.90;;;-3.69;93.55;101600.16;2568378;30;137013;-40
2022/03/04 01:55:42;;;;;;;;;;;-1.80;99.90;;;-3.68;93.40;101593.88;2569381;30;138427;-40
2022/03/04 01:58:09;;;;;;;;;;;-1.80;99.90;;;-3.68;93.55;101593.00;2565252;30;136716;-40
2022/03/04 02:00:37;;;;;;;;;;;-1.80;99.90;;;-3.69;93.63;101592.16;2568952;30;138268;-40
2022/03/04 02:03:11;;;;;;;;;;;-1.80;99.90;;;-3.70;93.69;101594.91;2567177;30;137677;-40
2022/03/04 02:05:39;;;;;;;;;;;-1.80;99.90;;;-3.73;93.11;101589.78;2567980;30;138837;-40
2022/03/04 02:08:06;;;;;;;;;;;-1.80;99.90;;;-3.78;93.01;101593.63;2568330;30;137262;-40
2022/03/04 02:10:34;;;;;;;;;;;-1.90;99.90;;;-3.82;93.35;101592.09;2567384;30;138030;-40
2022/03/04 02:13:01;;;;;;;;;;;-1.90;99.90;;;-3.83;93.71;101594.84;2568443;30;137197;-40
2022/03/04 02:15:28;;;;;;;;;;;-1.90;99.90;;;-3.83;94.12;101594.84;2567683;30;138345;-40
2022/03/04 02:17:56;;;;;;;;;;;-1.90;99.90;;;-3.83;94.47;101594.84;2566689;30;137507;-40
2022/03/04 02:20:23;;;;;;;;;;;-1.90;99.90;;;-3.87;94.62;101601.34;2567256;30;138098;-40
2022/03/04 02:22:51;;;;;;;;;;;-1.90;99.90;;;-3.85;94.83;101597.63;2568466;30;137193;-40
2022/03/04 02:25:18;;;;;;;;;;;-1.90;99.90;;;-3.87;94.61;101599.53;2567581;30;139150;-40
2022/03/04 02:27:45;;;;;;;;;;;-1.90;99.90;;;-3.91;94.92;101598.88;2567747;30;137374;-40
2022/03/04 02:30:14;;;;;;;;;;;-2.00;99.90;;;-3.91;94.83;101592.69;2569259;30;139163;-40
2022/03/04 02:32:41;;;;;;;;;;;-2.00;99.90;;;-3.93;95.81;101595.47;2567506;30;136970;-40
2022/03/04 02:35:08;;;;;;;;;;;-2.00;99.90;;;-4.00;95.67;101598.63;2568895;30;138565;-40
2022/03/04 02:37:38;;;;;;;;;;;-2.10;99.90;;;-4.02;95.75;101588.03;2566001;30;137635;-40
2022/03/04 02:40:06;;;;;;;;;;;-2.10;99.90;;;-4.01;96.32;101592.41;2566906;30;138383;-40
2022/03/04 02:42:33;;;;;;;;;;;-2.10;99.90;;;-4.00;96.16;101585.28;2567665;30;137911;-40
2022/03/04 02:45:01;;;;;;;;;;;-2.10;99.90;;;-4.08;96.23;101588.44;2566771;30;137446;-40
2022/03/04 02:47:28;;;;;;;;;;;-2.10;99.90;;;-4.10;96.03;101587.69;2568032;30;136855;-40
2022/03/04 02:49:55;;;;;;;;;;;-2.20;99.90;;;-4.13;96.56;101593.22;2566645;30;137500;-40
2022/03/04 02:52:23;;;;;;;;;;;-2.20;99.90;;;-4.18;96.60;101588.16;2568780;30;136693;-40
2022/03/04 02:54:51;;;;;;;;;;;-2.30;99.90;;;-4.16;96.47;101582.75;2566531;30;138422;-40
2022/03/04 02:57:18;;;;;;;;;;;-2.20;99.90;;;-4.20;96.86;101580.28;2567862;30;137364;-40
2022/03/04 02:59:45;;;;;;;;;;;-2.30;99.90;;;-4.22;97.18;101576.00;2567797;30;138949;-40
2022/03/04 03:02:13;;;;;;;;;;;-2.30;99.90;;;-4.24;96.97;101583.22;2567482;30;137829;-40
2022/03/04 03:04:40;;;;;;;;;;;-2.30;99.90;;;-4.25;97.29;101584.19;2569212;30;137029;-40
2022/03/04 03:07:08;;;;;;;;;;;-2.30;99.90;;;-4.23;97.92;101582.28;2568474;30;137809;-40
2022/03/04 03:09:35;;;;;;;;;;;-2.30;99.90;;;-4.25;98.03;101584.19;2566300;30;138079;-40
2022/03/04 03:12:03;;;;;;;;;;;-2.30;99.90;;;-4.25;98.44;101581.53;2567662;30;136578;-40
2022/03/04 03:14:31;;;;;;;;;;;-2.30;99.90;;;-4.29;98.45;101586.19;2565473;30;139388;-40
2022/03/04 03:16:58;;;;;;;;;;;-2.30;99.90;;;-4.31;98.72;101584.56;2566895;30;136854;-40
2022/03/04 03:19:26;;;;;;;;;;;-2.30;99.90;;;-4.27;98.50;101581.59;2568463;30;138956;-40
2022/03/04 03:21:54;;;;;;;;;;;-2.40;99.90;;;-4.32;98.69;101578.38;2566244;30;137327;-40
2022/03/04 03:24:21;;;;;;;;;;;-2.40;99.90;;;-4.30;98.91;101578.28;2568385;30;137422;-40
2022/03/04 03:26:49;;;;;;;;;;;-2.40;99.90;;;-4.34;98.53;101581.16;2568123;30;137923;-40
2022/03/04 03:29:16;;;;;;;;;;;-2.40;99.90;;;-4.33;98.96;101576.66;2568214;30;137423;-40
2022/03/04 03:31:43;;;;;;;;;;;-2.40;99.90;;;-4.39;98.62;101582.38;2565706;30;137469;-40
2022/03/04 03:34:11;;;;;;;;;;;-2.50;99.90;;;-4.43;98.35;101583.53;2568776;30;139211;-41
2022/03/04 03:36:38;;;;;;;;;;;-2.50;99.90;;;-4.44;98.45;101585.34;2568753;30;137000;-40
2022/03/04 03:39:08;;;;;;;;;;;-2.50;99.90;;;-4.40;98.93;101586.00;2567628;30;138258;-40
2022/03/04 03:41:36;;;;;;;;;;;-2.50;99.90;;;-4.42;99.18;101578.09;2567644;30;137846;-40
2022/03/04 03:44:03;;;;;;;;;;;-2.50;99.90;;;-4.44;99.38;101585.34;2568159;30;137399;-41
2022/03/04 03:46:31;;;;;;;;;;;-2.50;99.90;;;-4.46;98.96;101591.72;2567907;30;137261;-39
2022/03/04 03:48:58;;;;;;;;;;;-2.50;99.90;;;-4.48;99.00;101591.81;2568441;30;138530;-40
2022/03/04 03:51:26;;;;;;;;;;;-2.50;99.90;;;-4.54;98.85;101593.03;2568557;30;136960;-40
2022/03/04 03:53:54;;;;;;;;;;;-2.60;99.90;;;-4.55;99.01;101594.00;2568174;30;139184;-40
2022/03/04 03:56:21;;;;;;;;;;;-2.60;99.90;;;-4.56;99.26;101604.75;2568205;30;137865;-40
2022/03/04 03:58:48;;;;;;;;;;;-2.60;99.90;;;-4.57;99.28;101601.22;2568213;30;137526;-40
2022/03/04 04:01:16;;;;;;;;;;;-2.60;99.90;;;-4.57;99.55;101600.38;2567901;30;137060;-40
2022/03/04 04:03:43;;;;;;;;;;;-2.60;99.90;;;-4.55;100.00;101594.00;2568052;30;139056;-40
2022/03/04 04:06:10;;;;;;;;;;;-2.60;99.90;;;-4.55;100.00;101604.66;2567376;30;138933;-40
2022/03/04 04:08:38;;;;;;;;;;;-2.60;99.90;;;-4.55;99.56;101595.81;2567185;30;137456;-40
2022/03/04 04:11:05;;;;;;;;;;;-2.60;99.90;;;-4.55;99.58;101617.13;2565602;30;137524;-40
2022/03/04 04:13:33;;;;;;;;;;;-2.60;99.90;;;-4.59;99.78;101616.44;2569046;30;137448;-41
2022/03/04 04:16:00;;;;;;;;;;;-2.60;99.90;;;-4.62;99.33;101609.50;2569291;30;137084;-40
2022/03/04 04:18:28;;;;;;;;;;;-2.70;99.90;;;-4.65;99.23;101608.84;2568857;30;139108;-40
2022/03/04 04:20:56;;;;;;;;;;;-2.70;99.90;;;-4.68;99.20;101614.34;2567944;30;137180;-40
2022/03/04 04:23:23;;;;;;;;;;;-2.70;99.90;;;-4.71;98.41;101611.88;2568465;30;137430;-40
2022/03/04 04:25:50;;;;;;;;;;;-2.80;99.90;;;-4.78;98.65;101606.91;2568800;30;137231;-40
2022/03/04 04:28:18;;;;;;;;;;;-2.80;99.90;;;-4.85;98.87;101605.56;2568453;30;137484;-40
2022/03/04 04:30:45;;;;;;;;;;;-2.90;99.90;;;-4.91;99.08;101608.59;2566463;30;137536;-40
2022/03/04 04:33:12;;;;;;;;;;;-2.90;99.90;;;-4.98;99.27;101617.91;2569095;30;139133;-40
2022/03/04 04:35:40;;;;;;;;;;;-3.00;99.90;;;-5.03;98.89;101617.34;2568936;30;137328;-40
2022/03/04 04:38:07;;;;;;;;;;;-3.00;99.90;;;-5.03;99.60;101618.19;2568233;30;138185;-40
2022/03/04 04:40:35;;;;;;;;;;;-3.00;99.90;;;-5.00;100.00;101625.97;2567166;30;137784;-40
2022/03/04 04:43:02;;;;;;;;;;;-3.00;99.90;;;-4.96;100.00;101626.66;2568408;30;138415;-40
2022/03/04 04:45:30;;;;;;;;;;;-3.00;99.90;;;-4.92;100.00;101631.69;2568222;30;137749;-40
2022/03/04 04:47:59;;;;;;;;;;;-3.00;99.90;;;-4.91;100.00;101629.91;2568952;30;137358;-40
2022/03/04 04:50:26;;;;;;;;;;;-3.00;99.90;;;-4.91;100.00;101630.78;2568566;30;137046;-41
2022/03/04 04:52:54;;;;;;;;;;;-3.00;99.90;;;-4.93;100.00;101627.31;2569189;30;138447;-40
2022/03/04 04:55:21;;;;;;;;;;;-3.00;99.90;;;-4.94;100.00;101625.59;2568108;30;137304;-39
2022/03/04 04:57:48;;;;;;;;;;;-3.00;99.90;;;-4.98;100.00;101631.22;2569335;30;138554;-40
2022/03/04 05:00:17;;;;;;;;;;;-3.00;99.90;;;-5.02;100.00;101627.03;2568786;30;137022;-40
2022/03/04 05:02:44;;;;;;;;;;;-3.10;99.90;;;-4.97;100.00;101624.94;2566623;30;138299;-40
2022/03/04 05:05:12;;;;;;;;;;;-3.00;99.90;;;-4.99;100.00;101626.84;2568025;30;137875;-40
2022/03/04 05:07:39;;;;;;;;;;;-3.10;99.90;;;-4.98;100.00;101628.56;2568126;30;138173;-41
2022/03/04 05:10:07;;;;;;;;;;;-3.10;99.90;;;-4.97;100.00;101625.78;2568199;30;136968;-40
2022/03/04 05:12:35;;;;;;;;;;;-3.00;99.90;;;-4.95;100.00;101625.72;2568018;30;138260;-40
2022/03/04 05:15:02;;;;;;;;;;;-3.00;99.90;;;-4.94;100.00;101627.44;2567935;30;137031;-40
2022/03/04 05:17:29;;;;;;;;;;;-3.00;99.90;;;-4.93;100.00;101631.81;2568874;30;138311;-40
2022/03/04 05:19:57;;;;;;;;;;;-3.00;99.90;;;-4.95;100.00;101633.69;2569449;30;137058;-40
2022/03/04 05:22:24;;;;;;;;;;;-3.00;99.90;;;-5.01;100.00;101636.75;2568101;30;138220;-40
2022/03/04 05:24:52;;;;;;;;;;;-3.10;99.90;;;-5.03;100.00;101631.50;2566397;30;137033;-39
2022/03/04 05:27:19;;;;;;;;;;;-3.10;99.90;;;-5.00;100.00;101636.63;2568985;30;138428;-40
2022/03/04 05:29:46;;;;;;;;;;;-3.10;99.90;;;-4.97;100.00;101632.94;2569562;30;137602;-40
2022/03/04 05:32:14;;;;;;;;;;;-3.10;99.90;;;-4.99;100.00;101637.50;2567513;30;138442;-40
2022/03/04 05:34:41;;;;;;;;;;;-3.10;99.90;;;-5.03;100.00;101650.13;2568677;30;137335;-40
2022/03/04 05:37:09;;;;;;;;;;;-3.10;99.90;;;-5.06;100.00;101647.66;2569584;30;138282;-40
2022/03/04 05:39:36;;;;;;;;;;;-3.10;99.90;;;-5.08;100.00;101644.22;2567068;30;137906;-40
2022/03/04 05:42:04;;;;;;;;;;;-3.10;99.90;;;-5.11;100.00;101641.75;2568258;30;138362;-40
2022/03/04 05:44:32;;;;;;;;;;;-3.10;99.90;;;-5.18;100.00;101646.56;2567754;30;137013;-40
2022/03/04 05:46:59;;;;;;;;;;;-3.20;99.90;;;-5.21;100.00;101649.41;2568279;30;138203;-40
2022/03/04 05:49:27;;;;;;;;;;;-3.20;99.90;;;-5.18;100.00;101653.66;2568811;30;137208;-40
2022/03/04 05:51:54;;;;;;;;;;;-3.20;99.90;;;-5.18;100.00;101653.66;2568938;30;138418;-40
2022/03/04 05:54:22;;;;;;;;;;;-3.20;99.90;;;-5.22;100.00;101653.84;2568338;30;137981;-40
2022/03/04 05:56:49;;;;;;;;;;;-3.20;99.90;;;-5.21;100.00;101657.38;2568535;30;137539;-40
2022/03/04 05:59:17;;;;;;;;;;;-3.20;99.90;;;-5.23;100.00;101661.94;2568945;30;136998;-40
2022/03/04 06:01:44;;;;;;;;;;;-3.30;99.90;;;-5.23;100.00;101660.13;2567668;30;138197;-40
2022/03/04 06:04:12;;;;;;;;;;;-3.30;99.90;;;-5.21;100.00;101660.88;2567376;30;137117;-40
2022/03/04 06:06:40;;;;;;;;;;;-3.30;99.90;;;-5.21;100.00;101662.72;2564744;30;138567;-40
2022/03/04 06:09:07;;;;;;;;;;;-3.30;99.90;;;-5.24;100.00;101670.88;2566804;30;137162;-40
2022/03/04 06:11:34;;;;;;;;;;;-3.30;99.90;;;-5.25;100.00;101662.00;2568270;30;138485;-40
2022/03/04 06:14:03;;;;;;;;;;;-3.30;99.90;;;-5.25;100.00;101663.84;2566579;30;136963;-40
2022/03/04 06:16:30;;;;;;;;;;;-3.30;99.90;;;-5.23;100.00;101665.44;2566137;30;138175;-40
2022/03/04 06:18:58;;;;;;;;;;;-3.30;99.90;;;-5.25;100.00;101667.34;2568506;30;137151;-39
2022/03/04 06:21:26;;;;;;;;;;;-3.30;99.90;;;-5.27;100.00;101666.56;2567551;30;138454;-40
2022/03/04 06:23:53;;;;;;;;;;;-3.30;99.90;;;-5.29;100.00;101664.97;2568673;30;137067;-40
2022/03/04 06:26:21;;;;;;;;;;;-3.30;99.90;;;-5.28;100.00;101672.84;2565424;30;139231;-40
2022/03/04 06:28:48;;;;;;;;;;;-3.30;99.90;;;-5.24;100.00;101676.19;2569284;30;136698;-40
2022/03/04 06:31:16;;;;;;;;;;;-3.30;99.90;;;-5.23;100.00;101683.22;2568123;30;138224;-40
2022/03/04 06:33:44;;;;;;;;;;;-3.30;99.90;;;-5.22;100.00;101674.31;2568421;30;136943;-40
2022/03/04 06:36:15;;;;;;;;;;;-3.30;99.90;;;-5.20;100.00;101681.22;2567464;30;137411;-40
2022/03/04 06:38:44;;;;;;;;;;;-3.30;99.90;;;-5.19;100.00;101684.75;2567859;30;137198;-40
2022/03/04 06:41:13;;;;;;;;;;;-3.30;99.90;;;-5.15;100.00;101688.13;2567113;30;138376;-40
2022/03/04 06:43:41;;;;;;;;;;;-3.30;99.90;;;-5.13;100.00;101687.06;2568226;30;137221;-40
2022/03/04 06:46:09;;;;;;;;;;;-3.30;99.90;;;-5.11;100.00;101693.16;2568178;30;138411;-40
2022/03/04 06:48:37;;;;;;;;;;;-3.20;99.90;;;-5.10;100.00;101692.19;2568776;30;137059;-40
2022/03/04 06:51:05;;;;;;;;;;;-3.20;99.90;;;-5.06;100.00;101695.56;2566087;30;138630;-40
2022/03/04 06:53:32;;;;;;;;;;;-3.20;99.90;;;-5.04;100.00;101701.66;2569256;30;137018;-40
2022/03/04 06:56:00;;;;;;;;;;;-3.20;99.90;;;-5.00;100.00;101711.16;2567176;30;138171;-40
2022/03/04 06:58:27;;;;;;;;;;;-3.20;99.90;;;-4.99;100.00;101706.72;2567644;30;136840;-39
2022/03/04 07:00:56;;;;;;;;;;;-3.20;99.90;;;-4.93;100.00;101711.66;2567690;30;139032;-40
2022/03/04 07:03:23;;;;;;;;;;;-3.10;99.90;;;-4.87;100.00;101711.31;2567534;30;137880;-40
2022/03/04 13:06:35;;;;;;;;;;;-3.10;99.90;;;10.42;32.00;101630.03;2568786;30;136884;-41
2022/03/04 13:09:08;;;;;;;;;;;11.90;60.50;;;10.53;31.28;101657.84;2569962;30;137146;-42
2022/03/04 13:11:44;;;;;;;;;;;11.80;59.20;;;10.65;32.29;101642.66;2569010;30;138985;-41
2022/03/04 13:14:16;;;;;;;;;;;11.80;61.30;;;10.65;33.01;101637.22;2570922;30;137597;-41
2022/03/04 13:16:52;;;;;;;;;;;11.80;61.20;;;10.68;33.87;101636.81;2568521;30;139134;-41
2022/03/04 13:19:23;;;;;;;;;;;11.80;61.90;;;10.83;35.01;101644.97;2569690;30;137996;-41
2022/03/04 13:22:04;;;;;;;;;;;11.90;64.20;;;10.91;33.53;101644.81;2570334;30;138028;-42
2022/03/04 13:24:45;;;;;;;;;;;12.00;63.00;;;10.93;34.62;101639.19;2570585;30;137039;-42
2022/03/04 13:27:17;;;;;;;;;;;12.00;63.00;;;10.93;32.06;101634.53;2571179;30;137468;-37
2022/03/04 13:29:58;;;;;;;;;;;12.10;59.80;;;10.90;33.72;101631.38;2569469;30;137092;-39
2022/03/04 13:32:27;;;;;;;;;;;12.10;61.40;;;10.95;35.49;101626.19;2568455;30;139212;-39
2022/03/04 13:34:55;;;;;;;;;;;12.10;64.50;;;10.92;31.28;101629.31;2569770;30;137152;-39
2022/03/04 13:37:24;;;;;;;;;;;12.10;58.10;;;11.07;34.01;101613.66;2570992;30;138243;-39
2022/03/04 13:40:04;;;;;;;;;;;12.20;62.90;;;11.19;35.10;101619.44;2568926;30;137352;-39
2022/03/04 13:42:33;;;;;;;;;;;12.30;63.00;;;11.27;33.46;101620.34;2568548;30;137428;-40
2022/03/04 13:45:10;;;;;;;;;;;12.30;61.80;;;11.35;32.75;101610.09;2568057;30;137448;-41
2022/03/04 13:47:39;;;;;;;;;;;12.40;59.30;;;11.44;32.94;101615.44;2569313;30;137799;-43
2022/03/04 13:50:08;;;;;;;;;;;12.40;61.20;;;11.47;36.49;101607.69;2569508;30;137135;-39
2022/03/04 13:53:01;;;;;;;;;;;12.50;65.30;;;11.60;32.80;101606.09;2569914;30;137092;-39
2022/03/04 13:55:32;;;;;;;;;;;12.60;61.40;;;11.62;32.32;101598.53;2571162;30;138037;-39
2022/03/04 13:58:12;;;;;;;;;;;12.60;60.20;;;11.70;32.93;101600.28;2569524;30;138215;-39
2022/03/04 14:00:41;;;;;;;;;;;12.70;59.90;;;11.72;31.25;101603.66;2569561;30;137026;-42
2022/03/04 14:03:11;;;;;;;;;;;12.80;58.00;;;11.68;34.90;101588.69;2570202;30;138063;-41
2022/03/04 14:05:44;;;;;;;;;;;12.80;62.40;;;11.86;32.83;101596.38;2568849;30;136977;-41
2022/03/04 14:08:19;;;;;;;;;;;12.90;60.70;;;11.92;31.54;101588.16;2570704;30;137371;-42
2022/03/04 14:10:48;;;;;;;;;;;12.90;59.00;;;12.09;33.98;101593.34;2569608;30;137263;-41
2022/03/04 14:13:21;;;;;;;;;;;13.00;61.80;;;12.13;32.44;101589.16;2570729;30;139729;-39
2022/03/04 14:15:50;;;;;;;;;;;13.10;59.70;;;12.04;30.58;101587.66;2569647;30;136871;-39
2022/03/04 14:18:21;;;;;;;;;;;13.10;57.00;;;12.06;30.76;101585.53;2566653;30;137409;-39
2022/03/04 14:20:49;;;;;;;;;;;13.10;57.90;;;12.08;30.26;101588.91;2570736;30;137292;-39
2022/03/04 14:23:17;;;;;;;;;;;13.10;57.30;;;11.90;31.74;101583.97;2569842;30;139255;-40
2022/03/04 14:25:45;;;;;;;;;;;13.10;58.30;;;11.83;32.04;101586.66;2567641;30;138249;-41
2022/03/04 14:28:14;;;;;;;;;;;13.00;58.20;;;11.70;30.48;101589.34;2570057;30;138236;-41
2022/03/04 14:30:45;;;;;;;;;;;12.90;55.80;;;11.79;31.25;101579.91;2568922;30;137253;-41
2022/03/04 14:33:13;;;;;;;;;;;12.90;57.40;;;11.75;31.67;101579.47;2569468;30;138250;-41
2022/03/04 14:35:47;;;;;;;;;;;12.90;58.10;;;11.72;31.19;101573.59;2567015;30;137932;-41
2022/03/04 14:38:16;;;;;;;;;;;12.90;57.20;;;11.55;30.57;101573.88;2571430;30;137346;-42
2022/03/04 14:40:44;;;;;;;;;;;12.80;56.50;;;11.50;30.75;101569.03;2571034;30;137166;-41
2022/03/04 14:43:12;;;;;;;;;;;12.80;56.10;;;11.58;31.41;101576.22;2569846;30;138913;-41
2022/03/04 14:45:40;;;;;;;;;;;12.70;56.90;;;11.53;31.90;101570.53;2568017;30;137333;-41
2022/03/04 14:48:08;;;;;;;;;;;12.70;57.60;;;11.55;32.27;101560.22;2567596;30;137725;-41
2022/03/04 14:50:39;;;;;;;;;;;12.70;58.30;;;11.66;31.60;101564.28;2567774;30;138341;-42
2022/03/04 14:53:08;;;;;;;;;;;12.80;57.40;;;11.66;33.51;101562.38;2568500;30;138273;-42
2022/03/04 14:55:36;;;;;;;;;;;12.80;59.60;;;11.42;32.27;101569.19;2570032;30;136872;-41
2022/03/04 14:58:05;;;;;;;;;;;12.70;57.70;;;11.25;32.31;101562.31;2568501;30;138265;-41
2022/03/04 15:00:35;;;;;;;;;;;12.60;57.40;;;11.30;32.19;101563.44;2569288;30;136701;-41
2022/03/04 15:03:03;;;;;;;;;;;12.60;57.70;;;11.27;32.73;101560.25;2570319;30;139239;-41
2022/03/04 15:05:30;;;;;;;;;;;12.50;57.90;;;11.11;32.49;101559.50;2568120;30;136865;-41
2022/03/04 15:07:58;;;;;;;;;;;12.40;57.70;;;11.08;33.24;101560.75;2569154;30;138994;-41
2022/03/04 15:10:27;;;;;;;;;;;12.40;57.70;;;11.08;33.91;101563.47;2567764;30;138113;-41
2022/03/04 15:12:55;;;;;;;;;;;12.40;59.60;;;10.98;34.45;101571.16;2570523;30;138165;-40
2022/03/04 15:15:22;;;;;;;;;;;12.30;60.00;;;10.92;34.96;101561.88;2568632;30;138068;-41
2022/03/04 15:17:50;;;;;;;;;;;12.20;60.60;;;10.92;34.79;101561.03;2570701;30;138197;-41
2022/03/04 15:20:18;;;;;;;;;;;12.30;60.40;;;10.86;35.41;101559.09;2568504;30;137016;-42
2022/03/04 15:22:46;;;;;;;;;;;12.20;61.50;;;10.69;34.11;101555.78;2569522;30;137788;-41
2022/03/04 15:25:14;;;;;;;;;;;12.10;59.20;;;10.70;34.40;101560.19;2569897;30;137224;-41
2022/03/04 15:27:43;;;;;;;;;;;12.00;59.60;;;10.63;35.00;101551.97;2569204;30;138400;-41
2022/03/04 15:30:11;;;;;;;;;;;12.00;60.40;;;10.71;37.83;101557.28;2567872;30;136916;-41
2022/03/04 15:32:40;;;;;;;;;;;12.00;64.10;;;10.48;36.23;101561.03;2568388;30;138429;-42
2022/03/04 15:35:09;;;;;;;;;;;11.90;61.80;;;10.39;36.65;101562.19;2569053;30;138026;-41
2022/03/04 15:37:41;;;;;;;;;;;11.80;62.00;;;10.36;36.57;101557.13;2566241;30;138308;-41
2022/03/04 15:40:10;;;;;;;;;;;11.70;62.30;;;10.19;37.09;101562.81;2568580;30;137187;-42
2022/03/04 15:42:40;;;;;;;;;;;11.60;62.80;;;10.09;38.22;101562.28;2566453;30;138344;-41
2022/03/04 15:45:10;;;;;;;;;;;11.60;64.40;;;9.89;38.12;101565.59;2568670;30;137916;-41
2022/03/04 15:47:38;;;;;;;;;;;11.40;63.80;;;9.77;38.93;101570.66;2570622;30;139082;-41
2022/03/04 15:50:06;;;;;;;;;;;11.20;64.60;;;9.67;38.36;101563.81;2566407;30;136872;-41
2022/03/04 15:52:35;;;;;;;;;;;11.10;64.00;;;9.48;38.61;101563.31;2571144;30;138884;-41
2022/03/04 15:55:05;;;;;;;;;;;11.00;64.40;;;9.39;39.72;101567.19;2571214;30;137127;-41
2022/03/04 15:57:33;;;;;;;;;;;10.90;65.60;;;9.26;39.85;101565.09;2571066;30;137973;-39
2022/03/04 16:00:02;;;;;;;;;;;10.80;65.70;;;9.20;40.61;101561.25;2571438;30;137207;-37
2022/03/04 16:02:30;;;;;;;;;;;10.70;66.90;;;9.07;40.43;101557.28;2570659;30;137011;-40
2022/03/04 16:04:57;;;;;;;;;;;10.60;66.50;;;9.07;41.37;101570.03;2568619;30;137072;-41
2022/03/04 16:07:25;;;;;;;;;;;10.50;67.90;;;8.96;40.99;101567.78;2571457;30;137059;-41
2022/03/04 16:09:52;;;;;;;;;;;10.50;67.70;;;8.85;41.64;101567.16;2570744;30;137160;-41
2022/03/04 16:12:19;;;;;;;;;;;10.30;68.10;;;8.75;42.26;101562.00;2569930;30;138143;-41
2022/03/04 16:15:05;;;;;;;;;;;10.20;68.90;;;8.68;42.84;101565.63;2567749;30;137779;-41
2022/03/04 16:17:32;;;;;;;;;;;10.10;70.10;;;8.57;44.00;101566.88;2570747;30;137469;-41
2022/03/04 16:20:01;;;;;;;;;;;10.00;71.10;;;8.47;43.98;101567.91;2569213;30;136950;-41
2022/03/04 16:22:29;;;;;;;;;;;10.00;70.80;;;8.39;43.69;101573.41;2568938;30;137498;-41
2022/03/04 16:24:56;;;;;;;;;;;9.90;70.70;;;8.30;43.82;101566.34;2569280;30;137866;-41
2022/03/04 16:27:26;;;;;;;;;;;9.80;71.10;;;8.24;44.56;101564.34;2568525;30;137745;-40
2022/03/04 16:29:53;;;;;;;;;;;9.70;71.80;;;8.07;44.55;101567.16;2571228;30;137008;-41
2022/03/04 16:32:27;;;;;;;;;;;9.60;72.00;;;7.93;44.47;101563.31;2569301;30;136637;-41
2022/03/04 16:34:59;;;;;;;;;;;9.50;71.70;;;7.90;45.14;101572.66;2568982;30;138319;-41
2022/03/04 16:37:27;;;;;;;;;;;9.50;72.80;;;7.76;45.51;101571.50;2569266;30;139119;-42
2022/03/04 16:39:55;;;;;;;;;;;9.30;73.50;;;7.68;46.13;101576.97;2567803;30;137408;-41
2022/03/04 16:42:23;;;;;;;;;;;9.30;73.90;;;7.55;45.53;101569.38;2569773;30;139963;-41
2022/03/04 16:44:50;;;;;;;;;;;9.10;73.30;;;7.45;46.70;101571.47;2570133;30;137151;-41
2022/03/04 16:47:20;;;;;;;;;;;9.00;74.60;;;7.33;45.51;101577.25;2570233;30;138224;-41
2022/03/04 16:49:50;;;;;;;;;;;8.90;73.30;;;7.26;46.38;101567.22;2568734;30;138014;-41
2022/03/04 16:52:20;;;;;;;;;;;8.80;74.40;;;7.11;45.71;101564.38;2568603;30;138334;-42
2022/03/04 16:54:50;;;;;;;;;;;8.70;73.80;;;6.95;46.77;101574.25;2568971;30;137061;-41
2022/03/04 16:57:18;;;;;;;;;;;8.60;74.90;;;6.87;46.85;101576.94;2567231;30;138523;-41
2022/03/04 16:59:47;;;;;;;;;;;8.40;75.10;;;6.74;47.05;101572.88;2570069;30;138739;-40
2022/03/04 17:02:15;;;;;;;;;;;8.30;75.30;;;6.67;47.18;101571.88;2569014;30;138173;-41
2022/03/04 17:04:43;;;;;;;;;;;8.30;75.60;;;6.53;48.17;101575.22;2569933;30;136719;-40
2022/03/04 17:07:12;;;;;;;;;;;8.10;76.80;;;6.44;48.31;101583.34;2569689;30;138272;-40
2022/03/04 17:09:41;;;;;;;;;;;8.10;76.90;;;6.32;47.99;101581.94;2570731;30;137480;-41